GreenTxt   -   no warnings

Nearby METAR Reports

 

ENZV - Stavanger
Actualización: 22/08/2017 00:50
Muy nuboso
Muy nuboso
 Viento del NNO
Viento: NNO 19 km/h
Temperatura: 13°C
Rocío: 10°C
Humedad: 82%
Barómetro: 1020 hPa
Clouds: Muy nuboso
Visibility: 10 km
2017/08/21 22:50 ENZV 212250Z 33010KT 9999 FEW015 SCT037 BKN061 13/10 Q1020
ENBR - Bergen
Actualización: 22/08/2017 00:50
Parcialmente nuboso
Parcialmente nuboso
 Viento del N
Viento: N 13 km/h
Temperatura: 12°C
Rocío: 10°C
Humedad: 88%
Barómetro: 1020 hPa
Clouds: Parcialmente nuboso
Visibility: 10 km
2017/08/21 22:50 ENBR 212250Z 35007KT 9999 FEW020 SCT040 12/10 Q1020 RMK WIND 1200FT 35014KT
 
ENHD - Haugesund
Actualización: 22/08/2017 01:20
Muy nuboso
Muy nuboso
 Viento del NNO
Viento: NNO 26 km/h
Temperatura: 14°C
Rocío: 12°C
Humedad: 88%
Barómetro: 1019 hPa
Clouds: Muy nuboso
Visibility: 10 km
2017/08/21 23:20 ENHD 212320Z AUTO 34014KT 9999 BKN013/// BKN024/// 14/12 Q1019
ENCN - Kristiansand
Actualización: 22/08/2017 01:20
Despejado
Despejado
 Viento del NE
Viento: NE 7 km/h
Temperatura: 11°C
Rocío: 10°C
Humedad: 94%
Barómetro: 1017 hPa
Resumen: Despejado
Visibility: greater than 10 km
2017/08/21 23:20 ENCN 212320Z 04004KT CAVOK 11/10 Q1017
 
ENBO - Bodø
Actualización: 22/08/2017 00:50
Few clouds
Few clouds
 Viento del NNE
Viento: NNE 15 km/h
Temperatura: 8°C
Wind Chill: 5°C
Rocío: 4°C
Humedad: 76%
Barómetro: 1020 hPa
Clouds: Few clouds
Visibility: 10 km
2017/08/21 22:50 ENBO 212250Z 02008KT 9999 FEW030 08/04 Q1020 NOSIG
ENKR - Kirkenes
Actualización: 22/08/2017 01:20
Probáblemente lluvioso
Probáblemente lluvioso
 Viento del NNE
Viento: NNE 7 km/h
Resumen: Probáblemente lluvioso
Visibility: 10 km
2017/08/21 23:20 ENKR 212320Z AUTO 02004KT 9999 R06///// R24/P2000N RA ///031/// 07/05 Q1017 RMK WIND 731FT /////KT
 
ENVA - Trondheim
Actualización: 22/08/2017 01:20
Cubierto
Cubierto
 Viento del varies
Viento: varies 4 km/h
Temperatura: 10°C
Rocío: 8°C
Humedad: 88%
Barómetro: 1021 hPa
Clouds: Cubierto
Visibility: 10 km
2017/08/21 23:20 ENVA 212320Z VRB02KT 9999 SCT016 BKN026 OVC036 10/08 Q1021 RMK WIND 670FT 28005KT
ENGM - Oslo
Actualización: 22/08/2017 01:20
Despejado
Despejado
 Viento del N
Viento: N 20 km/h
Temperatura: 11°C
Rocío: 4°C
Humedad: 62%
Barómetro: 1017 hPa
Resumen: Despejado
Visibility: greater than 10 km
2017/08/21 23:20 ENGM 212320Z 01011KT CAVOK 11/04 Q1017